sensor_id;sensor_type;location;lat;lon;timestamp;temperature;humidity
19930;DHT22;10127;47.780;9.606;2023-04-07T00:02:15;8.00;99.90
19930;DHT22;10127;47.780;9.606;2023-04-07T00:04:41;8.00;99.90
19930;DHT22;10127;47.780;9.606;2023-04-07T00:07:07;8.00;99.90
19930;DHT22;10127;47.780;9.606;2023-04-07T00:09:32;8.00;99.90
19930;DHT22;10127;47.780;9.606;2023-04-07T00:11:58;8.10;99.90
19930;DHT22;10127;47.780;9.606;2023-04-07T00:14:27;8.10;99.90
19930;DHT22;10127;47.780;9.606;2023-04-07T00:16:52;8.10;99.90
19930;DHT22;10127;47.780;9.606;2023-04-07T00:19:18;8.10;99.90
19930;DHT22;10127;47.780;9.606;2023-04-07T00:21:43;8.20;99.90
19930;DHT22;10127;47.780;9.606;2023-04-07T00:24:09;8.20;99.90
19930;DHT22;10127;47.780;9.606;2023-04-07T00:26:34;8.10;99.90
19930;DHT22;10127;47.780;9.606;2023-04-07T00:29:00;8.00;99.90
19930;DHT22;10127;47.780;9.606;2023-04-07T00:31:25;8.00;99.90
19930;DHT22;10127;47.780;9.606;2023-04-07T00:33:51;8.20;99.90
19930;DHT22;10127;47.780;9.606;2023-04-07T00:36:17;8.30;99.90
19930;DHT22;10127;47.780;9.606;2023-04-07T00:38:42;8.30;99.90
19930;DHT22;10127;47.780;9.606;2023-04-07T00:41:08;8.20;99.90
19930;DHT22;10127;47.780;9.606;2023-04-07T00:43:33;8.20;99.90
19930;DHT22;10127;47.780;9.606;2023-04-07T00:45:59;8.30;99.90
19930;DHT22;10127;47.780;9.606;2023-04-07T00:48:24;8.30;99.90
19930;DHT22;10127;47.780;9.606;2023-04-07T00:50:50;8.30;99.90
19930;DHT22;10127;47.780;9.606;2023-04-07T00:53:16;8.40;99.90
19930;DHT22;10127;47.780;9.606;2023-04-07T00:55:41;8.40;99.90
19930;DHT22;10127;47.780;9.606;2023-04-07T00:58:07;8.30;99.90
19930;DHT22;10127;47.780;9.606;2023-04-07T01:00:40;8.40;99.90
19930;DHT22;10127;47.780;9.606;2023-04-07T01:03:28;8.30;99.90
19930;DHT22;10127;47.780;9.606;2023-04-07T01:05:59;8.40;99.90
19930;DHT22;10127;47.780;9.606;2023-04-07T01:08:47;8.40;99.90
19930;DHT22;10127;47.780;9.606;2023-04-07T01:11:24;8.40;99.90
19930;DHT22;10127;47.780;9.606;2023-04-07T01:13:53;8.50;99.90
19930;DHT22;10127;47.780;9.606;2023-04-07T01:18:51;8.40;99.90
19930;DHT22;10127;47.780;9.606;2023-04-07T01:21:18;8.20;99.90
19930;DHT22;10127;47.780;9.606;2023-04-07T01:26:36;8.00;99.90
19930;DHT22;10127;47.780;9.606;2023-04-07T01:29:36;8.00;99.90
19930;DHT22;10127;47.780;9.606;2023-04-07T01:32:04;8.10;99.90
19930;DHT22;10127;47.780;9.606;2023-04-07T01:34:31;8.30;99.90
19930;DHT22;10127;47.780;9.606;2023-04-07T01:36:58;8.30;99.90
19930;DHT22;10127;47.780;9.606;2023-04-07T01:39:26;8.40;99.90
19930;DHT22;10127;47.780;9.606;2023-04-07T01:41:53;8.10;99.90
19930;DHT22;10127;47.780;9.606;2023-04-07T01:44:20;8.00;99.90
19930;DHT22;10127;47.780;9.606;2023-04-07T01:46:46;7.90;99.90
19930;DHT22;10127;47.780;9.606;2023-04-07T01:49:13;7.80;99.90
19930;DHT22;10127;47.780;9.606;2023-04-07T01:51:39;7.70;99.90
19930;DHT22;10127;47.780;9.606;2023-04-07T01:54:06;7.70;99.90
19930;DHT22;10127;47.780;9.606;2023-04-07T01:56:32;7.80;99.90
19930;DHT22;10127;47.780;9.606;2023-04-07T01:58:58;7.80;99.90
19930;DHT22;10127;47.780;9.606;2023-04-07T02:01:24;7.80;99.90
19930;DHT22;10127;47.780;9.606;2023-04-07T02:04:06;7.70;99.90
19930;DHT22;10127;47.780;9.606;2023-04-07T02:06:44;7.80;99.90
19930;DHT22;10127;47.780;9.606;2023-04-07T02:09:15;7.80;99.90
19930;DHT22;10127;47.780;9.606;2023-04-07T02:11:42;8.00;99.90
19930;DHT22;10127;47.780;9.606;2023-04-07T02:14:09;8.00;99.90
19930;DHT22;10127;47.780;9.606;2023-04-07T02:16:36;7.80;99.90
19930;DHT22;10127;47.780;9.606;2023-04-07T02:19:02;7.70;99.90
19930;DHT22;10127;47.780;9.606;2023-04-07T02:21:29;7.80;99.90
19930;DHT22;10127;47.780;9.606;2023-04-07T02:24:00;7.80;99.90
19930;DHT22;10127;47.780;9.606;2023-04-07T02:26:26;7.80;99.90
19930;DHT22;10127;47.780;9.606;2023-04-07T02:28:51;7.90;99.90
19930;DHT22;10127;47.780;9.606;2023-04-07T02:31:17;7.90;99.90
19930;DHT22;10127;47.780;9.606;2023-04-07T02:33:42;8.00;99.90
19930;DHT22;10127;47.780;9.606;2023-04-07T02:36:08;7.90;99.90
19930;DHT22;10127;47.780;9.606;2023-04-07T02:38:33;7.90;99.90
19930;DHT22;10127;47.780;9.606;2023-04-07T02:40:59;8.10;99.90
19930;DHT22;10127;47.780;9.606;2023-04-07T02:43:25;8.00;99.90
19930;DHT22;10127;47.780;9.606;2023-04-07T02:45:50;8.00;99.90
19930;DHT22;10127;47.780;9.606;2023-04-07T02:48:16;8.00;99.90
19930;DHT22;10127;47.780;9.606;2023-04-07T03:11:19;7.80;99.90
19930;DHT22;10127;47.780;9.606;2023-04-07T03:13:44;7.70;99.90
19930;DHT22;10127;47.780;9.606;2023-04-07T03:16:10;7.70;99.90
19930;DHT22;10127;47.780;9.606;2023-04-07T03:18:35;7.80;99.90
19930;DHT22;10127;47.780;9.606;2023-04-07T03:21:01;7.80;99.90
19930;DHT22;10127;47.780;9.606;2023-04-07T03:23:27;7.90;99.90
19930;DHT22;10127;47.780;9.606;2023-04-07T03:25:53;7.80;99.90
19930;DHT22;10127;47.780;9.606;2023-04-07T03:28:19;7.80;99.90
19930;DHT22;10127;47.780;9.606;2023-04-07T03:30:44;7.70;99.90
19930;DHT22;10127;47.780;9.606;2023-04-07T03:33:10;7.60;99.90
19930;DHT22;10127;47.780;9.606;2023-04-07T03:35:36;7.50;99.90
19930;DHT22;10127;47.780;9.606;2023-04-07T03:38:02;7.30;99.90
19930;DHT22;10127;47.780;9.606;2023-04-07T03:40:27;7.20;99.90
19930;DHT22;10127;47.780;9.606;2023-04-07T03:42:53;7.20;99.90
19930;DHT22;10127;47.780;9.606;2023-04-07T03:45:19;7.20;99.90
19930;DHT22;10127;47.780;9.606;2023-04-07T03:47:44;7.30;99.90
19930;DHT22;10127;47.780;9.606;2023-04-07T03:50:10;7.40;99.90
19930;DHT22;10127;47.780;9.606;2023-04-07T03:52:36;7.50;99.90
19930;DHT22;10127;47.780;9.606;2023-04-07T03:55:01;7.60;99.90
19930;DHT22;10127;47.780;9.606;2023-04-07T03:57:27;7.70;99.90
19930;DHT22;10127;47.780;9.606;2023-04-07T03:59:53;7.80;99.90
19930;DHT22;10127;47.780;9.606;2023-04-07T04:02:20;7.80;99.90
19930;DHT22;10127;47.780;9.606;2023-04-07T04:04:45;7.60;99.90
19930;DHT22;10127;47.780;9.606;2023-04-07T04:07:11;7.50;99.90
19930;DHT22;10127;47.780;9.606;2023-04-07T04:09:37;7.50;99.90
19930;DHT22;10127;47.780;9.606;2023-04-07T04:12:02;7.40;99.90
19930;DHT22;10127;47.780;9.606;2023-04-07T04:14:28;7.30;99.90
19930;DHT22;10127;47.780;9.606;2023-04-07T04:16:53;7.30;99.90
19930;DHT22;10127;47.780;9.606;2023-04-07T04:19:19;7.40;99.90
19930;DHT22;10127;47.780;9.606;2023-04-07T04:21:44;7.60;99.90
19930;DHT22;10127;47.780;9.606;2023-04-07T04:24:10;7.50;99.90
19930;DHT22;10127;47.780;9.606;2023-04-07T04:26:36;7.50;99.90
19930;DHT22;10127;47.780;9.606;2023-04-07T04:29:01;7.50;99.90
19930;DHT22;10127;47.780;9.606;2023-04-07T04:31:28;7.50;99.90
19930;DHT22;10127;47.780;9.606;2023-04-07T04:33:53;7.40;99.90
19930;DHT22;10127;47.780;9.606;2023-04-07T04:36:19;7.50;99.90
19930;DHT22;10127;47.780;9.606;2023-04-07T04:38:44;7.40;99.90
19930;DHT22;10127;47.780;9.606;2023-04-07T04:41:10;7.40;99.90
19930;DHT22;10127;47.780;9.606;2023-04-07T04:43:35;7.30;99.90
19930;DHT22;10127;47.780;9.606;2023-04-07T04:46:01;7.40;99.90
19930;DHT22;10127;47.780;9.606;2023-04-07T04:48:27;7.30;99.90
19930;DHT22;10127;47.780;9.606;2023-04-07T04:50:52;7.00;99.90
19930;DHT22;10127;47.780;9.606;2023-04-07T04:53:18;6.80;99.90
19930;DHT22;10127;47.780;9.606;2023-04-07T04:55:43;6.80;99.90
19930;DHT22;10127;47.780;9.606;2023-04-07T04:58:11;7.00;99.90
19930;DHT22;10127;47.780;9.606;2023-04-07T05:00:37;7.20;99.90
19930;DHT22;10127;47.780;9.606;2023-04-07T05:03:02;7.40;99.90
19930;DHT22;10127;47.780;9.606;2023-04-07T05:05:28;7.50;99.90
19930;DHT22;10127;47.780;9.606;2023-04-07T05:07:54;7.40;99.90
19930;DHT22;10127;47.780;9.606;2023-04-07T05:10:19;7.50;99.90
19930;DHT22;10127;47.780;9.606;2023-04-07T05:12:45;7.60;99.90
19930;DHT22;10127;47.780;9.606;2023-04-07T05:15:10;7.60;99.90
19930;DHT22;10127;47.780;9.606;2023-04-07T05:17:36;7.70;99.90
19930;DHT22;10127;47.780;9.606;2023-04-07T05:20:02;7.80;99.90
19930;DHT22;10127;47.780;9.606;2023-04-07T05:22:28;7.90;99.90
19930;DHT22;10127;47.780;9.606;2023-04-07T05:24:54;7.90;99.90
19930;DHT22;10127;47.780;9.606;2023-04-07T05:27:19;7.80;99.90
19930;DHT22;10127;47.780;9.606;2023-04-07T05:29:45;7.60;99.90
19930;DHT22;10127;47.780;9.606;2023-04-07T05:32:10;7.60;99.90
19930;DHT22;10127;47.780;9.606;2023-04-07T05:34:36;7.60;99.90
19930;DHT22;10127;47.780;9.606;2023-04-07T05:37:01;7.50;99.90
19930;DHT22;10127;47.780;9.606;2023-04-07T05:39:27;7.30;99.90
19930;DHT22;10127;47.780;9.606;2023-04-07T05:41:52;7.10;99.90
19930;DHT22;10127;47.780;9.606;2023-04-07T05:44:18;7.10;99.90
19930;DHT22;10127;47.780;9.606;2023-04-07T05:46:43;7.10;99.90
19930;DHT22;10127;47.780;9.606;2023-04-07T05:49:09;7.30;99.90
19930;DHT22;10127;47.780;9.606;2023-04-07T05:51:35;7.20;99.90
19930;DHT22;10127;47.780;9.606;2023-04-07T05:54:01;7.20;99.90
19930;DHT22;10127;47.780;9.606;2023-04-07T05:56:29;7.30;99.90
19930;DHT22;10127;47.780;9.606;2023-04-07T05:58:55;7.60;99.90
19930;DHT22;10127;47.780;9.606;2023-04-07T06:01:21;7.80;99.90
19930;DHT22;10127;47.780;9.606;2023-04-07T06:03:46;7.90;99.90
19930;DHT22;10127;47.780;9.606;2023-04-07T06:06:13;8.00;99.90
19930;DHT22;10127;47.780;9.606;2023-04-07T06:08:39;8.10;99.90
19930;DHT22;10127;47.780;9.606;2023-04-07T06:11:04;8.10;99.90
19930;DHT22;10127;47.780;9.606;2023-04-07T06:13:30;8.20;99.90
19930;DHT22;10127;47.780;9.606;2023-04-07T06:15:56;8.20;99.90
19930;DHT22;10127;47.780;9.606;2023-04-07T06:18:22;8.20;99.90
19930;DHT22;10127;47.780;9.606;2023-04-07T06:20:47;8.20;99.90
19930;DHT22;10127;47.780;9.606;2023-04-07T06:23:13;8.20;99.90
19930;DHT22;10127;47.780;9.606;2023-04-07T06:25:38;8.40;99.90
19930;DHT22;10127;47.780;9.606;2023-04-07T06:28:04;8.40;99.90
19930;DHT22;10127;47.780;9.606;2023-04-07T06:30:30;8.40;99.90
19930;DHT22;10127;47.780;9.606;2023-04-07T06:32:56;8.50;99.90
19930;DHT22;10127;47.780;9.606;2023-04-07T06:35:21;8.40;99.90
19930;DHT22;10127;47.780;9.606;2023-04-07T06:37:47;8.40;99.90
19930;DHT22;10127;47.780;9.606;2023-04-07T06:40:12;8.50;99.90
19930;DHT22;10127;47.780;9.606;2023-04-07T06:42:38;8.70;99.90
19930;DHT22;10127;47.780;9.606;2023-04-07T06:45:04;8.70;99.90
19930;DHT22;10127;47.780;9.606;2023-04-07T06:47:30;8.90;99.90
19930;DHT22;10127;47.780;9.606;2023-04-07T06:49:55;9.00;99.90
19930;DHT22;10127;47.780;9.606;2023-04-07T06:52:21;9.10;99.90
19930;DHT22;10127;47.780;9.606;2023-04-07T06:54:46;9.20;99.90
19930;DHT22;10127;47.780;9.606;2023-04-07T06:57:12;9.20;99.90
19930;DHT22;10127;47.780;9.606;2023-04-07T06:59:38;9.30;99.90
19930;DHT22;10127;47.780;9.606;2023-04-07T07:02:03;9.30;99.90
19930;DHT22;10127;47.780;9.606;2023-04-07T07:04:29;9.40;99.90
19930;DHT22;10127;47.780;9.606;2023-04-07T07:06:54;9.30;99.90
19930;DHT22;10127;47.780;9.606;2023-04-07T07:09:20;9.40;99.90
19930;DHT22;10127;47.780;9.606;2023-04-07T07:11:46;9.50;99.90
19930;DHT22;10127;47.780;9.606;2023-04-07T07:14:12;9.60;99.90
19930;DHT22;10127;47.780;9.606;2023-04-07T07:16:37;9.70;99.90
19930;DHT22;10127;47.780;9.606;2023-04-07T07:19:03;9.90;99.90
19930;DHT22;10127;47.780;9.606;2023-04-07T07:21:28;10.00;99.90
19930;DHT22;10127;47.780;9.606;2023-04-07T07:23:54;9.80;99.90
19930;DHT22;10127;47.780;9.606;2023-04-07T07:26:19;9.70;99.90
19930;DHT22;10127;47.780;9.606;2023-04-07T07:28:45;9.90;99.90
19930;DHT22;10127;47.780;9.606;2023-04-07T07:31:11;9.90;99.90
19930;DHT22;10127;47.780;9.606;2023-04-07T07:33:38;9.70;99.90
19930;DHT22;10127;47.780;9.606;2023-04-07T07:36:06;9.70;99.90
19930;DHT22;10127;47.780;9.606;2023-04-07T07:38:31;9.70;99.90
19930;DHT22;10127;47.780;9.606;2023-04-07T07:40:57;9.80;99.90
19930;DHT22;10127;47.780;9.606;2023-04-07T07:43:29;10.00;99.90
19930;DHT22;10127;47.780;9.606;2023-04-07T07:45:55;10.30;99.90
19930;DHT22;10127;47.780;9.606;2023-04-07T07:48:20;10.50;99.90
19930;DHT22;10127;47.780;9.606;2023-04-07T07:50:46;10.60;99.90
19930;DHT22;10127;47.780;9.606;2023-04-07T07:53:13;10.70;99.90
19930;DHT22;10127;47.780;9.606;2023-04-07T07:55:39;10.80;99.90
19930;DHT22;10127;47.780;9.606;2023-04-07T07:58:05;10.80;99.90
19930;DHT22;10127;47.780;9.606;2023-04-07T08:00:30;10.80;99.90
19930;DHT22;10127;47.780;9.606;2023-04-07T08:02:56;11.00;99.90
19930;DHT22;10127;47.780;9.606;2023-04-07T08:05:21;11.00;99.90
19930;DHT22;10127;47.780;9.606;2023-04-07T08:07:47;11.10;99.90
19930;DHT22;10127;47.780;9.606;2023-04-07T08:10:20;11.20;99.90
19930;DHT22;10127;47.780;9.606;2023-04-07T08:12:46;11.50;99.90
19930;DHT22;10127;47.780;9.606;2023-04-07T08:15:11;11.50;99.90
19930;DHT22;10127;47.780;9.606;2023-04-07T08:17:37;11.60;99.90
19930;DHT22;10127;47.780;9.606;2023-04-07T08:20:03;11.80;99.90
19930;DHT22;10127;47.780;9.606;2023-04-07T08:22:29;11.80;99.90
19930;DHT22;10127;47.780;9.606;2023-04-07T08:24:55;11.80;99.90
19930;DHT22;10127;47.780;9.606;2023-04-07T08:27:28;11.70;99.90
19930;DHT22;10127;47.780;9.606;2023-04-07T08:29:59;11.90;99.90
19930;DHT22;10127;47.780;9.606;2023-04-07T08:32:24;12.00;99.90
19930;DHT22;10127;47.780;9.606;2023-04-07T08:34:57;12.10;99.90
19930;DHT22;10127;47.780;9.606;2023-04-07T08:37:30;12.30;99.90
19930;DHT22;10127;47.780;9.606;2023-04-07T08:39:56;12.50;99.90
19930;DHT22;10127;47.780;9.606;2023-04-07T08:42:26;12.80;99.90
19930;DHT22;10127;47.780;9.606;2023-04-07T08:44:53;13.00;99.90
19930;DHT22;10127;47.780;9.606;2023-04-07T08:47:21;13.20;99.90
19930;DHT22;10127;47.780;9.606;2023-04-07T08:49:51;13.30;99.90
19930;DHT22;10127;47.780;9.606;2023-04-07T08:52:20;13.10;99.90
19930;DHT22;10127;47.780;9.606;2023-04-07T08:54:47;13.20;99.90
19930;DHT22;10127;47.780;9.606;2023-04-07T08:57:13;13.20;99.90
19930;DHT22;10127;47.780;9.606;2023-04-07T08:59:41;13.00;99.90
19930;DHT22;10127;47.780;9.606;2023-04-07T09:02:10;13.00;99.90
19930;DHT22;10127;47.780;9.606;2023-04-07T09:04:35;13.10;99.90
19930;DHT22;10127;47.780;9.606;2023-04-07T09:07:01;13.20;99.90
19930;DHT22;10127;47.780;9.606;2023-04-07T09:09:27;13.20;99.90
19930;DHT22;10127;47.780;9.606;2023-04-07T09:11:53;13.20;99.90
19930;DHT22;10127;47.780;9.606;2023-04-07T09:14:20;13.10;99.90
19930;DHT22;10127;47.780;9.606;2023-04-07T09:16:46;13.20;99.90
19930;DHT22;10127;47.780;9.606;2023-04-07T09:19:12;13.20;99.90
19930;DHT22;10127;47.780;9.606;2023-04-07T09:21:47;13.10;99.90
19930;DHT22;10127;47.780;9.606;2023-04-07T09:24:22;13.20;99.90
19930;DHT22;10127;47.780;9.606;2023-04-07T09:26:47;13.30;99.90
19930;DHT22;10127;47.780;9.606;2023-04-07T09:29:18;13.50;99.90
19930;DHT22;10127;47.780;9.606;2023-04-07T09:31:49;13.50;99.90
19930;DHT22;10127;47.780;9.606;2023-04-07T09:34:41;13.60;99.90
19930;DHT22;10127;47.780;9.606;2023-04-07T09:37:07;13.40;99.90
19930;DHT22;10127;47.780;9.606;2023-04-07T09:39:51;13.40;99.90
19930;DHT22;10127;47.780;9.606;2023-04-07T09:42:17;13.10;99.90
19930;DHT22;10127;47.780;9.606;2023-04-07T09:44:43;13.20;99.90
19930;DHT22;10127;47.780;9.606;2023-04-07T09:47:08;13.30;99.90
19930;DHT22;10127;47.780;9.606;2023-04-07T09:49:48;13.40;99.90
19930;DHT22;10127;47.780;9.606;2023-04-07T09:52:14;13.60;99.90
19930;DHT22;10127;47.780;9.606;2023-04-07T09:54:41;13.50;99.90
19930;DHT22;10127;47.780;9.606;2023-04-07T09:57:09;13.50;99.90
19930;DHT22;10127;47.780;9.606;2023-04-07T09:59:37;13.50;99.90
19930;DHT22;10127;47.780;9.606;2023-04-07T10:02:04;13.60;99.90
19930;DHT22;10127;47.780;9.606;2023-04-07T10:04:30;13.60;99.90
19930;DHT22;10127;47.780;9.606;2023-04-07T10:06:57;13.70;99.90
19930;DHT22;10127;47.780;9.606;2023-04-07T10:09:26;13.90;99.60
19930;DHT22;10127;47.780;9.606;2023-04-07T10:11:53;14.20;99.90
19930;DHT22;10127;47.780;9.606;2023-04-07T10:14:20;14.40;99.80
19930;DHT22;10127;47.780;9.606;2023-04-07T10:16:47;14.40;99.60
19930;DHT22;10127;47.780;9.606;2023-04-07T10:19:13;14.70;99.40
19930;DHT22;10127;47.780;9.606;2023-04-07T10:21:40;14.80;99.70
19930;DHT22;10127;47.780;9.606;2023-04-07T10:26:58;15.00;98.40
19930;DHT22;10127;47.780;9.606;2023-04-07T10:29:28;15.00;97.90
19930;DHT22;10127;47.780;9.606;2023-04-07T10:31:55;15.10;97.90
19930;DHT22;10127;47.780;9.606;2023-04-07T10:37:14;14.80;97.70
19930;DHT22;10127;47.780;9.606;2023-04-07T10:39:44;14.40;98.00
19930;DHT22;10127;47.780;9.606;2023-04-07T10:47:30;14.60;97.10
19930;DHT22;10127;47.780;9.606;2023-04-07T10:50:18;14.70;97.10
19930;DHT22;10127;47.780;9.606;2023-04-07T10:52:45;15.00;96.70
19930;DHT22;10127;47.780;9.606;2023-04-07T10:55:31;14.90;96.80
19930;DHT22;10127;47.780;9.606;2023-04-07T11:03:34;14.60;97.50
19930;DHT22;10127;47.780;9.606;2023-04-07T11:06:08;14.50;97.70
19930;DHT22;10127;47.780;9.606;2023-04-07T11:08:44;14.70;97.60
19930;DHT22;10127;47.780;9.606;2023-04-07T11:11:12;14.70;97.40
19930;DHT22;10127;47.780;9.606;2023-04-07T11:16:08;14.40;98.50
19930;DHT22;10127;47.780;9.606;2023-04-07T11:18:34;14.40;98.90
19930;DHT22;10127;47.780;9.606;2023-04-07T11:21:01;14.30;98.70
19930;DHT22;10127;47.780;9.606;2023-04-07T11:23:27;14.30;98.30
19930;DHT22;10127;47.780;9.606;2023-04-07T11:26:03;14.20;98.30
19930;DHT22;10127;47.780;9.606;2023-04-07T11:28:29;14.40;98.20
19930;DHT22;10127;47.780;9.606;2023-04-07T11:30:56;14.40;98.50
19930;DHT22;10127;47.780;9.606;2023-04-07T11:33:27;14.20;98.10
19930;DHT22;10127;47.780;9.606;2023-04-07T11:35:54;14.40;98.20
19930;DHT22;10127;47.780;9.606;2023-04-07T11:38:23;14.40;98.30
19930;DHT22;10127;47.780;9.606;2023-04-07T11:40:50;14.60;98.10
19930;DHT22;10127;47.780;9.606;2023-04-07T11:45:45;14.70;97.60
19930;DHT22;10127;47.780;9.606;2023-04-07T11:48:30;14.90;97.00
19930;DHT22;10127;47.780;9.606;2023-04-07T11:50:56;14.90;96.80
19930;DHT22;10127;47.780;9.606;2023-04-07T11:53:38;14.80;96.50
19930;DHT22;10127;47.780;9.606;2023-04-07T11:56:05;14.90;96.70
19930;DHT22;10127;47.780;9.606;2023-04-07T11:58:31;15.20;96.50
19930;DHT22;10127;47.780;9.606;2023-04-07T12:00:58;15.30;96.30
19930;DHT22;10127;47.780;9.606;2023-04-07T12:03:27;15.00;95.80
19930;DHT22;10127;47.780;9.606;2023-04-07T12:05:54;15.00;95.80
19930;DHT22;10127;47.780;9.606;2023-04-07T12:08:19;15.20;95.20
19930;DHT22;10127;47.780;9.606;2023-04-07T12:10:45;15.30;95.30
19930;DHT22;10127;47.780;9.606;2023-04-07T12:13:12;15.20;95.30
19930;DHT22;10127;47.780;9.606;2023-04-07T12:15:38;15.00;95.60
19930;DHT22;10127;47.780;9.606;2023-04-07T12:18:04;14.80;95.50
19930;DHT22;10127;47.780;9.606;2023-04-07T12:20:30;14.70;95.50
19930;DHT22;10127;47.780;9.606;2023-04-07T12:22:56;15.00;95.10
19930;DHT22;10127;47.780;9.606;2023-04-07T12:25:22;15.20;95.40
19930;DHT22;10127;47.780;9.606;2023-04-07T12:27:48;15.20;96.50
19930;DHT22;10127;47.780;9.606;2023-04-07T12:30:13;15.00;96.90
19930;DHT22;10127;47.780;9.606;2023-04-07T12:32:39;14.70;97.50
19930;DHT22;10127;47.780;9.606;2023-04-07T12:35:07;14.80;97.40
19930;DHT22;10127;47.780;9.606;2023-04-07T12:37:33;15.00;97.00
19930;DHT22;10127;47.780;9.606;2023-04-07T12:39:58;14.90;96.50
19930;DHT22;10127;47.780;9.606;2023-04-07T12:42:24;14.80;95.90
19930;DHT22;10127;47.780;9.606;2023-04-07T12:44:50;14.70;95.90
19930;DHT22;10127;47.780;9.606;2023-04-07T12:47:16;14.50;95.90
19930;DHT22;10127;47.780;9.606;2023-04-07T12:49:41;14.60;96.30
19930;DHT22;10127;47.780;9.606;2023-04-07T12:52:07;14.50;96.20
19930;DHT22;10127;47.780;9.606;2023-04-07T12:54:32;14.60;96.50
19930;DHT22;10127;47.780;9.606;2023-04-07T12:56:58;14.60;96.00
19930;DHT22;10127;47.780;9.606;2023-04-07T12:59:24;14.80;96.40
19930;DHT22;10127;47.780;9.606;2023-04-07T13:01:50;15.00;95.60
19930;DHT22;10127;47.780;9.606;2023-04-07T13:04:15;14.80;96.20
19930;DHT22;10127;47.780;9.606;2023-04-07T13:06:42;14.50;96.90
19930;DHT22;10127;47.780;9.606;2023-04-07T13:09:07;14.40;97.50
19930;DHT22;10127;47.780;9.606;2023-04-07T13:11:33;14.50;97.30
19930;DHT22;10127;47.780;9.606;2023-04-07T13:13:59;14.40;97.10
19930;DHT22;10127;47.780;9.606;2023-04-07T13:16:24;14.20;97.50
19930;DHT22;10127;47.780;9.606;2023-04-07T13:18:50;14.30;98.00
19930;DHT22;10127;47.780;9.606;2023-04-07T13:21:15;14.30;97.80
19930;DHT22;10127;47.780;9.606;2023-04-07T13:23:41;14.30;97.90
19930;DHT22;10127;47.780;9.606;2023-04-07T13:26:06;14.40;97.20
19930;DHT22;10127;47.780;9.606;2023-04-07T13:28:32;14.40;97.40
19930;DHT22;10127;47.780;9.606;2023-04-07T13:30:58;14.20;98.10
19930;DHT22;10127;47.780;9.606;2023-04-07T13:33:23;14.50;98.00
19930;DHT22;10127;47.780;9.606;2023-04-07T13:35:49;14.50;96.80
19930;DHT22;10127;47.780;9.606;2023-04-07T13:38:15;14.60;95.80
19930;DHT22;10127;47.780;9.606;2023-04-07T13:40:40;14.50;96.50
19930;DHT22;10127;47.780;9.606;2023-04-07T13:43:06;14.60;97.30
19930;DHT22;10127;47.780;9.606;2023-04-07T13:45:32;14.20;96.40
19930;DHT22;10127;47.780;9.606;2023-04-07T13:47:58;14.10;96.20
19930;DHT22;10127;47.780;9.606;2023-04-07T13:50:24;14.50;95.60
19930;DHT22;10127;47.780;9.606;2023-04-07T13:52:49;14.80;95.30
19930;DHT22;10127;47.780;9.606;2023-04-07T13:55:15;15.00;95.20
19930;DHT22;10127;47.780;9.606;2023-04-07T13:57:41;15.20;94.70
19930;DHT22;10127;47.780;9.606;2023-04-07T14:00:07;15.40;94.40
19930;DHT22;10127;47.780;9.606;2023-04-07T14:02:33;15.40;93.40
19930;DHT22;10127;47.780;9.606;2023-04-07T14:04:58;15.40;93.50
19930;DHT22;10127;47.780;9.606;2023-04-07T14:07:24;15.00;92.40
19930;DHT22;10127;47.780;9.606;2023-04-07T14:09:49;14.90;93.20
19930;DHT22;10127;47.780;9.606;2023-04-07T14:12:15;14.90;92.90
19930;DHT22;10127;47.780;9.606;2023-04-07T14:14:41;14.80;92.80
19930;DHT22;10127;47.780;9.606;2023-04-07T14:17:07;15.00;92.50
19930;DHT22;10127;47.780;9.606;2023-04-07T14:19:32;15.20;92.50
19930;DHT22;10127;47.780;9.606;2023-04-07T14:21:59;15.10;92.10
19930;DHT22;10127;47.780;9.606;2023-04-07T14:24:25;14.70;92.00
19930;DHT22;10127;47.780;9.606;2023-04-07T14:26:50;14.80;92.70
19930;DHT22;10127;47.780;9.606;2023-04-07T14:29:18;14.70;92.50
19930;DHT22;10127;47.780;9.606;2023-04-07T14:31:44;14.60;92.70
19930;DHT22;10127;47.780;9.606;2023-04-07T14:34:13;14.50;94.90
19930;DHT22;10127;47.780;9.606;2023-04-07T14:36:38;14.10;97.20
19930;DHT22;10127;47.780;9.606;2023-04-07T14:39:04;13.50;98.10
19930;DHT22;10127;47.780;9.606;2023-04-07T14:41:29;13.10;98.60
19930;DHT22;10127;47.780;9.606;2023-04-07T14:43:55;12.90;98.10
19930;DHT22;10127;47.780;9.606;2023-04-07T14:46:22;13.10;98.30
19930;DHT22;10127;47.780;9.606;2023-04-07T14:48:48;13.30;97.80
19930;DHT22;10127;47.780;9.606;2023-04-07T14:51:16;13.00;98.30
19930;DHT22;10127;47.780;9.606;2023-04-07T14:53:41;12.90;99.70
19930;DHT22;10127;47.780;9.606;2023-04-07T14:56:08;12.80;99.90
19930;DHT22;10127;47.780;9.606;2023-04-07T14:58:33;12.70;99.90
19930;DHT22;10127;47.780;9.606;2023-04-07T15:01:01;12.70;99.90
19930;DHT22;10127;47.780;9.606;2023-04-07T15:03:27;12.70;99.90
19930;DHT22;10127;47.780;9.606;2023-04-07T15:05:53;13.10;99.90
19930;DHT22;10127;47.780;9.606;2023-04-07T15:08:18;13.10;99.90
19930;DHT22;10127;47.780;9.606;2023-04-07T15:10:44;13.10;99.90
19930;DHT22;10127;47.780;9.606;2023-04-07T15:13:09;13.00;99.90
19930;DHT22;10127;47.780;9.606;2023-04-07T15:15:35;12.70;99.90
19930;DHT22;10127;47.780;9.606;2023-04-07T15:18:01;12.40;99.90
19930;DHT22;10127;47.780;9.606;2023-04-07T15:20:26;12.00;99.90
19930;DHT22;10127;47.780;9.606;2023-04-07T15:22:52;12.10;99.90
19930;DHT22;10127;47.780;9.606;2023-04-07T15:25:17;11.90;99.90
19930;DHT22;10127;47.780;9.606;2023-04-07T15:27:43;11.80;99.90
19930;DHT22;10127;47.780;9.606;2023-04-07T15:30:09;11.80;99.90
19930;DHT22;10127;47.780;9.606;2023-04-07T15:32:34;11.80;99.90
19930;DHT22;10127;47.780;9.606;2023-04-07T15:35:00;11.90;99.90
19930;DHT22;10127;47.780;9.606;2023-04-07T15:37:25;11.90;99.90
19930;DHT22;10127;47.780;9.606;2023-04-07T15:39:51;11.90;99.90
19930;DHT22;10127;47.780;9.606;2023-04-07T15:42:17;11.90;99.90
19930;DHT22;10127;47.780;9.606;2023-04-07T15:44:42;11.90;99.90
19930;DHT22;10127;47.780;9.606;2023-04-07T15:47:08;11.70;99.90
19930;DHT22;10127;47.780;9.606;2023-04-07T15:49:34;11.50;99.90
19930;DHT22;10127;47.780;9.606;2023-04-07T15:52:02;11.50;99.90
19930;DHT22;10127;47.780;9.606;2023-04-07T15:54:29;11.30;99.90
19930;DHT22;10127;47.780;9.606;2023-04-07T15:56:54;11.30;99.90
19930;DHT22;10127;47.780;9.606;2023-04-07T15:59:20;10.90;99.90
19930;DHT22;10127;47.780;9.606;2023-04-07T16:01:46;10.60;99.90
19930;DHT22;10127;47.780;9.606;2023-04-07T16:04:11;10.50;99.90
19930;DHT22;10127;47.780;9.606;2023-04-07T16:06:37;10.40;99.90
19930;DHT22;10127;47.780;9.606;2023-04-07T16:09:03;10.40;99.90
19930;DHT22;10127;47.780;9.606;2023-04-07T16:11:28;10.40;99.90
19930;DHT22;10127;47.780;9.606;2023-04-07T16:13:54;10.30;99.90
19930;DHT22;10127;47.780;9.606;2023-04-07T16:16:20;10.30;99.90
19930;DHT22;10127;47.780;9.606;2023-04-07T16:18:45;10.20;99.90
19930;DHT22;10127;47.780;9.606;2023-04-07T16:21:12;10.10;99.90
19930;DHT22;10127;47.780;9.606;2023-04-07T16:23:38;9.90;99.90